Time;durP1;ratioP1;P1;durP2;ratioP2;P2;SDS_P1;SDS_P2;PMS_P1;PMS_P2;Temp;Humidity;BMP_temperature;BMP_pressure;BME280_temperature;BME280_humidity;BME280_pressure;Samples;Min_cycle;Max_cycle;Signal;HPM_P1;HPM_P2
2023/09/20 00:02:13;;;;;;;4.78;1.98;;;;;;;26.96;42.88;99789.00;4454996;32;34743;-68
2023/09/20 00:04:42;;;;;;;3.05;1.77;;;;;;;26.94;43.04;99787.59;4455559;32;32172;-67
2023/09/20 00:07:10;;;;;;;4.22;2.20;;;;;;;26.93;43.08;99789.50;4468967;32;33083;-67
2023/09/20 00:09:38;;;;;;;4.05;1.90;;;;;;;26.93;43.07;99785.94;4455093;32;33114;-67
2023/09/20 00:12:07;;;;;;;3.37;1.87;;;;;;;26.91;43.09;99786.19;4467859;32;34087;-67
2023/09/20 00:14:34;;;;;;;4.80;2.45;;;;;;;26.92;43.06;99793.31;4455175;32;33409;-67
2023/09/20 00:17:02;;;;;;;5.18;1.83;;;;;;;26.93;42.93;99789.50;4467935;32;33504;-67
2023/09/20 00:19:30;;;;;;;4.57;2.22;;;;;;;26.95;42.67;99803.78;4469525;32;34007;-67
2023/09/20 00:21:57;;;;;;;4.20;1.90;;;;;;;26.95;42.75;99800.19;4467456;32;33866;-67
2023/09/20 00:24:25;;;;;;;3.83;1.98;;;;;;;26.92;42.88;99801.53;4469036;32;34411;-67
2023/09/20 00:26:55;;;;;;;3.92;1.70;;;;;;;26.92;42.92;99795.22;4454756;32;33885;-66
2023/09/20 00:29:43;;;;;;;5.28;1.90;;;;;;;26.90;42.98;99803.66;4443268;32;33685;-69
2023/09/20 00:32:11;;;;;;;3.62;1.85;;;;;;;26.90;43.00;99802.84;4454975;32;34068;-67
2023/09/20 00:34:38;;;;;;;3.95;1.87;;;;;;;26.90;43.09;99803.66;4468919;32;33551;-69
2023/09/20 00:37:06;;;;;;;4.80;2.37;;;;;;;26.91;42.85;99802.63;4469030;32;34000;-68
2023/09/20 00:39:34;;;;;;;4.30;1.90;;;;;;;26.91;42.89;99796.31;4455042;32;33717;-69
2023/09/20 00:42:01;;;;;;;4.57;2.22;;;;;;;26.90;42.97;99809.16;4469154;32;33319;-69
2023/09/20 00:44:29;;;;;;;3.00;1.83;;;;;;;26.90;43.08;99800.09;4467573;32;32546;-67
2023/09/20 00:46:57;;;;;;;8.63;2.00;;;;;;;26.88;43.06;99800.38;4441952;32;33523;-69
2023/09/20 00:49:24;;;;;;;8.73;1.98;;;;;;;26.88;43.16;99805.00;4454736;32;34375;-69
2023/09/20 00:51:52;;;;;;;2.25;1.70;;;;;;;26.89;43.14;99807.50;4454418;32;33990;-69
2023/09/20 00:54:21;;;;;;;3.87;1.95;;;;;;;26.88;43.13;99810.50;4441927;32;33427;-70
2023/09/20 00:56:49;;;;;;;5.93;2.00;;;;;;;26.91;42.85;99810.00;4441338;32;32531;-67
2023/09/20 00:59:16;;;;;;;4.10;1.90;;;;;;;26.90;42.81;99806.41;4469111;32;33212;-68
2023/09/20 01:01:44;;;;;;;4.30;1.98;;;;;;;26.88;42.88;99797.63;4442016;32;33056;-69
2023/09/20 01:04:12;;;;;;;5.18;2.10;;;;;;;26.87;42.96;99800.63;4454379;32;32612;-69
2023/09/20 01:06:41;;;;;;;3.42;1.73;;;;;;;26.88;42.88;99797.63;4454727;32;33878;-69
2023/09/20 01:09:09;;;;;;;3.97;2.00;;;;;;;26.88;42.78;99792.16;4454952;32;33546;-70
2023/09/20 01:11:37;;;;;;;5.00;2.03;;;;;;;26.90;42.54;99795.47;4441719;32;34174;-68
2023/09/20 01:14:05;;;;;;;5.55;1.95;;;;;;;26.88;42.70;99791.31;4454763;32;33255;-69
2023/09/20 01:16:33;;;;;;;2.90;1.62;;;;;;;26.89;42.51;99787.50;4442005;32;32430;-68
2023/09/20 01:19:04;;;;;;;3.92;1.60;;;;;;;26.87;42.66;99785.03;4454553;32;33919;-69
2023/09/20 01:21:43;;;;;;;4.22;1.65;;;;;;;26.88;42.42;99791.31;4455403;32;33844;-67
2023/09/20 01:24:10;;;;;;;5.05;1.75;;;;;;;26.91;42.52;99790.84;4441883;32;34273;-69
2023/09/20 01:26:39;;;;;;;3.90;1.67;;;;;;;26.88;42.60;99791.31;4457292;32;33634;-67
2023/09/20 01:29:06;;;;;;;3.97;1.60;;;;;;;26.86;42.50;99786.13;4444592;32;32856;-69
2023/09/20 01:31:37;;;;;;;2.78;1.70;;;;;;;26.85;42.54;99783.59;4457294;32;34789;-69
2023/09/20 01:34:05;;;;;;;3.10;1.80;;;;;;;26.85;42.59;99791.81;4484467;32;33671;-67
2023/09/20 01:36:32;;;;;;;3.20;1.67;;;;;;;26.83;42.68;99791.25;4470216;32;33606;-69
2023/09/20 01:39:02;;;;;;;4.30;2.07;;;;;;;26.83;42.69;99788.50;4470450;32;34637;-66
2023/09/20 01:41:30;;;;;;;5.62;2.00;;;;;;;26.85;42.54;99795.37;4484289;32;34056;-69
2023/09/20 01:43:58;;;;;;;3.85;1.62;;;;;;;26.85;42.47;99794.56;4469822;32;32623;-70
2023/09/20 01:46:26;;;;;;;3.17;1.70;;;;;;;26.86;42.36;99790.72;4469963;32;33780;-67
2023/09/20 01:48:54;;;;;;;2.95;1.80;;;;;;;26.84;42.45;99788.25;4470026;32;33909;-69
2023/09/20 01:51:22;;;;;;;2.58;1.60;;;;;;;26.83;42.38;99794.00;4469860;32;33840;-67
2023/09/20 01:53:51;;;;;;;5.30;2.12;;;;;;;26.83;42.44;99794.00;4470181;32;33664;-68
2023/09/20 01:56:18;;;;;;;3.78;1.83;;;;;;;26.84;42.40;99790.16;4470386;32;33820;-67
2023/09/20 01:58:46;;;;;;;5.53;1.90;;;;;;;26.84;42.27;99792.91;4484145;32;34016;-68
2023/09/20 02:01:14;;;;;;;6.82;1.90;;;;;;;26.84;42.28;99796.47;4484091;32;34444;-67
2023/09/20 02:03:43;;;;;;;3.93;1.87;;;;;;;26.85;42.15;99797.28;4456026;32;32516;-68
2023/09/20 02:06:12;;;;;;;3.87;1.80;;;;;;;26.85;42.00;99795.37;4456911;32;34048;-68
2023/09/20 02:08:40;;;;;;;3.62;1.70;;;;;;;26.84;42.18;99792.91;4456948;32;33513;-67
2023/09/20 02:11:09;;;;;;;4.18;2.03;;;;;;;26.85;42.00;99791.81;4456891;32;34084;-71
2023/09/20 02:13:37;;;;;;;3.07;1.60;;;;;;;26.84;42.11;99787.44;4470031;32;33337;-68
2023/09/20 02:16:05;;;;;;;3.70;1.92;;;;;;;26.85;41.96;99792.63;4456772;32;32754;-67
2023/09/20 02:18:33;;;;;;;4.30;1.52;;;;;;;26.83;42.00;99785.78;4469676;32;33024;-68
2023/09/20 02:21:00;;;;;;;4.40;1.83;;;;;;;26.82;42.15;99789.59;4469705;32;34081;-68
2023/09/20 02:23:28;;;;;;;3.97;1.85;;;;;;;26.83;41.87;99791.25;4469887;32;33620;-69
2023/09/20 02:25:56;;;;;;;3.97;1.90;;;;;;;26.82;42.14;99797.81;4469544;32;34779;-69
2023/09/20 02:28:24;;;;;;;4.85;1.70;;;;;;;26.81;42.13;99790.66;4457138;32;33629;-69
2023/09/20 02:30:52;;;;;;;2.87;1.50;;;;;;;26.81;42.17;99799.69;4469609;32;33610;-69
2023/09/20 02:33:20;;;;;;;3.53;1.40;;;;;;;26.81;42.14;99801.59;4469713;32;33415;-69
2023/09/20 02:35:48;;;;;;;4.87;2.00;;;;;;;26.82;41.99;99795.06;4456986;32;33870;-69
2023/09/20 02:38:16;;;;;;;3.75;1.83;;;;;;;26.81;42.00;99791.47;4443904;32;34014;-69
2023/09/20 02:40:46;;;;;;;5.55;1.95;;;;;;;26.80;42.12;99789.81;4456803;32;34980;-67
2023/09/20 02:43:16;;;;;;;6.78;1.75;;;;;;;26.79;42.21;99795.56;4469367;32;34508;-66
2023/09/20 02:45:45;;;;;;;4.50;1.67;;;;;;;26.82;41.81;99792.34;4469811;32;33060;-69
2023/09/20 02:48:13;;;;;;;3.30;1.90;;;;;;;26.81;41.83;99791.47;4469463;32;34768;-69
2023/09/20 02:50:44;;;;;;;3.08;1.62;;;;;;;26.80;41.92;99799.94;4469551;32;34184;-67
2023/09/20 02:53:13;;;;;;;5.28;1.90;;;;;;;26.78;42.03;99796.66;4483757;32;34024;-70
2023/09/20 02:55:41;;;;;;;4.27;1.80;;;;;;;26.78;42.01;99794.72;4456702;32;33718;-68
2023/09/20 02:58:09;;;;;;;5.65;1.90;;;;;;;26.78;41.88;99793.91;4456372;32;32550;-68
2023/09/20 03:00:46;;;;;;;3.80;1.80;;;;;;;26.76;42.13;99802.34;4483960;32;34751;-66
2023/09/20 03:03:15;;;;;;;4.68;1.60;;;;;;;26.77;42.18;99797.72;4470475;32;33519;-67
2023/09/20 03:05:44;;;;;;;;;;;;;;;26.76;42.16;99793.31;4469926;32;34535;-68
2023/09/20 03:08:12;;;;;;;4.03;1.80;;;;;;;26.86;41.43;99799.81;4469187;32;33320;-67
2023/09/20 03:10:42;;;;;;;4.28;1.55;;;;;;;26.81;41.59;99802.44;4469054;32;33501;-67
2023/09/20 03:13:12;;;;;;;4.35;1.90;;;;;;;26.79;41.51;99795.56;4443640;32;31861;-67
2023/09/20 03:15:43;;;;;;;3.67;1.70;;;;;;;26.78;41.50;99800.22;4444501;32;33802;-67
2023/09/20 03:18:13;;;;;;;4.37;1.87;;;;;;;26.79;41.36;99801.03;4458680;32;32534;-67
2023/09/20 03:20:44;;;;;;;3.08;1.60;;;;;;;26.78;41.47;99808.41;4458321;32;32668;-68
2023/09/20 03:23:13;;;;;;;3.85;1.58;;;;;;;26.76;41.80;99804.25;4471074;32;34442;-67
2023/09/20 03:25:41;;;;;;;3.70;1.70;;;;;;;26.74;41.79;99801.78;4442782;32;32876;-69
2023/09/20 03:28:09;;;;;;;3.85;2.05;;;;;;;26.74;42.05;99800.94;4468181;32;33935;-68
2023/09/20 03:30:39;;;;;;;3.28;1.55;;;;;;;26.72;42.00;99801.22;4455816;32;33791;-66
2023/09/20 03:33:07;;;;;;;3.17;1.87;;;;;;;26.74;41.82;99811.91;4455955;32;33497;-69
2023/09/20 03:35:35;;;;;;;5.10;1.65;;;;;;;26.73;41.85;99804.78;4455183;32;32818;-70
2023/09/20 03:38:03;;;;;;;2.87;1.60;;;;;;;26.73;41.87;99802.03;4442750;32;32658;-68
2023/09/20 03:40:31;;;;;;;2.85;1.40;;;;;;;26.72;41.91;99803.94;4468195;32;34146;-67
2023/09/20 03:42:59;;;;;;;4.07;1.55;;;;;;;26.71;42.05;99803.09;4468327;32;33519;-67
2023/09/20 03:45:28;;;;;;;4.20;1.58;;;;;;;26.71;42.07;99796.78;4455261;32;32721;-67
2023/09/20 03:48:01;;;;;;;3.42;1.58;;;;;;;26.70;42.14;99792.41;4455253;32;33412;-68
2023/09/20 03:50:29;;;;;;;7.22;1.70;;;;;;;26.70;42.21;99795.13;4458424;32;34681;-69
2023/09/20 03:53:00;;;;;;;3.67;1.60;;;;;;;26.71;42.12;99794.06;4457883;32;33595;-68
2023/09/20 03:55:27;;;;;;;3.22;1.65;;;;;;;26.72;41.73;99798.47;4471436;32;33806;-68
2023/09/20 03:57:56;;;;;;;5.57;2.00;;;;;;;26.71;41.67;99794.87;4471096;32;34800;-67
2023/09/20 04:00:28;;;;;;;3.12;1.70;;;;;;;26.73;41.74;99796.56;4470630;32;33072;-69
2023/09/20 04:02:58;;;;;;;3.17;1.60;;;;;;;26.71;41.69;99791.31;4458708;32;33308;-66
2023/09/20 04:05:27;;;;;;;4.18;1.70;;;;;;;26.70;41.77;99790.50;4432819;32;32866;-67
2023/09/20 04:08:12;;;;;;;3.70;1.83;;;;;;;26.69;41.75;99788.84;4461813;32;33673;-67
2023/09/20 04:10:40;;;;;;;3.25;1.60;;;;;;;26.69;41.79;99794.31;4458398;32;34199;-66
2023/09/20 04:13:09;;;;;;;4.35;2.08;;;;;;;26.68;42.01;99800.03;4458157;32;33866;-66
2023/09/20 04:15:40;;;;;;;3.85;1.70;;;;;;;26.67;42.13;99796.47;4484876;32;33834;-69
2023/09/20 04:18:09;;;;;;;3.53;1.77;;;;;;;26.67;41.94;99795.63;4470852;32;33905;-71
2023/09/20 04:20:37;;;;;;;3.25;1.50;;;;;;;26.67;41.89;99791.00;4457783;32;33016;-65
2023/09/20 04:23:06;;;;;;;3.65;2.62;;;;;;;26.71;41.58;99799.53;4470797;32;33158;-66
2023/09/20 04:25:34;;;;;;;4.60;1.65;;;;;;;26.71;41.35;99797.63;4457415;32;32936;-68
2023/09/20 04:28:02;;;;;;;3.58;1.73;;;;;;;26.71;41.56;99802.25;4484104;32;34048;-66
2023/09/20 04:30:31;;;;;;;3.65;1.70;;;;;;;26.69;41.72;99796.22;4470537;32;33877;-68
2023/09/20 04:32:59;;;;;;;3.70;1.40;;;;;;;26.67;41.82;99804.69;4484913;32;34085;-66
2023/09/20 04:35:27;;;;;;;5.32;2.00;;;;;;;26.68;41.76;99809.09;4458208;32;33479;-67
2023/09/20 04:37:55;;;;;;;2.33;1.50;;;;;;;26.68;41.70;99809.09;4457554;32;34019;-69
2023/09/20 04:40:24;;;;;;;3.22;1.67;;;;;;;26.69;41.59;99818.13;4470578;32;33900;-68
2023/09/20 04:42:52;;;;;;;4.03;1.90;;;;;;;26.69;41.51;99813.47;4470516;32;33523;-68
2023/09/20 04:45:19;;;;;;;4.22;1.85;;;;;;;26.71;41.43;99825.00;4467193;32;33581;-65
2023/09/20 04:47:48;;;;;;;3.97;1.80;;;;;;;26.69;41.50;99818.13;4456423;32;33882;-67
2023/09/20 04:50:16;;;;;;;4.68;1.87;;;;;;;26.67;41.64;99821.13;4444887;32;32986;-66
2023/09/20 04:52:46;;;;;;;3.08;1.60;;;;;;;26.66;41.65;99816.69;4457612;32;33806;-67
2023/09/20 04:55:40;;;;;;;3.80;1.83;;;;;;;26.66;41.74;99822.16;4457797;32;32823;-69
2023/09/20 04:58:08;;;;;;;3.87;1.90;;;;;;;26.66;42.01;99819.44;4484913;32;33512;-67
2023/09/20 05:00:37;;;;;;;4.05;1.80;;;;;;;26.64;42.07;99827.06;4484582;32;33645;-68
2023/09/20 05:03:05;;;;;;;4.35;1.92;;;;;;;26.63;42.17;99828.16;4484641;32;34461;-70
2023/09/20 05:05:34;;;;;;;6.62;1.60;;;;;;;26.64;42.11;99845.41;4457210;32;33132;-70
2023/09/20 05:08:04;;;;;;;3.92;1.60;;;;;;;26.63;42.02;99839.09;4454536;32;33872;-67
2023/09/20 05:10:32;;;;;;;5.87;2.00;;;;;;;26.65;41.75;99838.84;4454820;32;34106;-70
2023/09/20 05:13:00;;;;;;;3.58;1.70;;;;;;;26.64;41.81;99835.28;4468932;32;33640;-69
2023/09/20 05:15:29;;;;;;;4.65;1.83;;;;;;;26.64;41.88;99845.41;4454601;32;34563;-69
2023/09/20 05:17:56;;;;;;;4.07;1.70;;;;;;;26.62;41.87;99840.16;4429154;32;35204;-70
2023/09/20 05:20:26;;;;;;;4.70;1.85;;;;;;;26.63;41.99;99841.84;4465174;31;33731;-68
2023/09/20 05:22:54;;;;;;;6.03;2.53;;;;;;;26.66;41.88;99854.19;4456984;32;32630;-65
2023/09/20 05:25:22;;;;;;;3.12;1.80;;;;;;;26.69;41.50;99840.84;4484459;32;34532;-67
2023/09/20 05:27:51;;;;;;;3.65;1.80;;;;;;;26.68;41.50;99843.84;4470153;32;33978;-65
2023/09/20 05:30:19;;;;;;;5.90;1.80;;;;;;;26.67;41.84;99850.38;4470074;32;34168;-68
2023/09/20 05:32:50;;;;;;;3.75;1.80;;;;;;;26.66;41.59;99844.06;4470020;32;34808;-70
2023/09/20 05:35:18;;;;;;;4.53;1.85;;;;;;;26.65;41.81;99841.59;4470104;32;33782;-69
2023/09/20 05:37:46;;;;;;;3.47;1.83;;;;;;;26.64;41.75;99846.22;4450436;32;33849;-68
2023/09/20 05:40:17;;;;;;;3.87;1.55;;;;;;;26.63;41.59;99852.78;4456565;32;33696;-66
2023/09/20 05:42:50;;;;;;;2.58;1.30;;;;;;;26.63;41.49;99860.16;4456757;32;32614;-67
2023/09/20 05:45:20;;;;;;;3.30;1.55;;;;;;;26.63;41.46;99863.75;4456332;32;33439;-66
2023/09/20 05:47:49;;;;;;;;;;;;;;;26.61;41.46;99859.56;4483762;32;34677;-69
2023/09/20 05:50:17;;;;;;;5.20;1.90;;;;;;;26.69;41.30;99861.91;4483743;32;34478;-69
2023/09/20 05:52:45;;;;;;;3.10;1.85;;;;;;;26.61;41.45;99865.88;4469434;32;33201;-66
2023/09/20 05:55:13;;;;;;;6.87;1.80;;;;;;;26.59;41.55;99873.50;4483678;32;34794;-69
2023/09/20 05:57:42;;;;;;;7.87;2.08;;;;;;;26.57;41.56;99878.37;4469502;32;32727;-68
2023/09/20 06:00:21;;;;;;;4.35;2.00;;;;;;;26.56;41.60;99874.00;4455257;32;32934;-69
2023/09/20 06:02:52;;;;;;;7.37;2.15;;;;;;;26.55;41.60;99864.13;4458029;32;33659;-69
2023/09/20 06:05:20;;;;;;;8.35;2.20;;;;;;;26.57;41.60;99869.34;4457290;32;33636;-69
2023/09/20 06:07:48;;;;;;;5.03;1.98;;;;;;;26.55;41.63;99863.31;4469719;32;33634;-66
2023/09/20 06:10:17;;;;;;;5.82;2.10;;;;;;;26.54;41.66;99867.94;4455155;32;33794;-66
2023/09/20 06:12:45;;;;;;;6.10;1.90;;;;;;;26.53;41.69;99866.25;4469332;32;33449;-67
2023/09/20 06:15:13;;;;;;;13.18;2.35;;;;;;;26.53;41.69;99874.47;4469972;32;33791;-72
2023/09/20 06:17:44;;;;;;;8.90;2.30;;;;;;;26.52;41.87;99870.09;4454133;32;34353;-68
2023/09/20 06:20:12;;;;;;;8.27;2.53;;;;;;;26.52;42.00;99880.19;4468317;32;34166;-69
2023/09/20 06:22:41;;;;;;;9.95;2.08;;;;;;;26.52;42.13;99886.50;4483926;32;34392;-71
2023/09/20 06:25:10;;;;;;;7.90;2.05;;;;;;;26.51;42.20;99887.59;4483574;32;34625;-72
2023/09/20 06:27:39;;;;;;;13.18;2.10;;;;;;;26.51;42.25;99884.03;4444002;32;32495;-66
2023/09/20 06:30:12;;;;;;;7.53;2.05;;;;;;;26.50;42.27;99877.72;4469504;32;33980;-65
2023/09/20 06:32:44;;;;;;;6.72;2.20;;;;;;;26.51;42.29;99889.50;4457695;32;33443;-68
2023/09/20 06:35:14;;;;;;;7.18;2.08;;;;;;;26.49;42.35;99887.00;4442610;32;33949;-65
2023/09/20 06:37:45;;;;;;;8.43;2.37;;;;;;;26.49;42.38;99884.28;4454863;32;32834;-68
2023/09/20 06:40:22;;;;;;;6.75;2.20;;;;;;;26.49;42.46;99883.41;4455170;32;33709;-71
2023/09/20 06:42:50;;;;;;;8.98;2.12;;;;;;;26.48;42.53;99892.72;4482192;32;33478;-70
2023/09/20 06:45:19;;;;;;;7.55;2.60;;;;;;;26.48;42.57;99890.78;4455474;32;33713;-69
2023/09/20 06:47:46;;;;;;;6.20;2.37;;;;;;;26.47;42.62;99889.16;4468325;32;33841;-66
2023/09/20 06:50:14;;;;;;;5.53;2.37;;;;;;;26.47;42.66;99891.06;4455406;32;34833;-66
2023/09/20 06:52:43;;;;;;;4.85;2.22;;;;;;;26.46;42.75;99890.22;4443004;32;32682;-67
2023/09/20 06:55:16;;;;;;;6.80;1.90;;;;;;;26.48;42.87;99889.97;4483234;32;34573;-65
2023/09/20 06:57:43;;;;;;;9.02;2.22;;;;;;;26.46;42.90;99887.50;4456775;32;33637;-65
2023/09/20 07:00:25;;;;;;;2.92;1.75;;;;;;;26.45;42.97;99891.31;4469234;32;32710;-66
2023/09/20 07:02:55;;;;;;;5.47;1.95;;;;;;;26.43;43.02;99887.97;4460126;32;34466;-64
2023/09/20 07:05:28;;;;;;;7.62;2.00;;;;;;;26.43;43.02;99894.25;4469063;32;34033;-70
2023/09/20 07:07:58;;;;;;;5.87;1.87;;;;;;;26.42;43.00;99897.22;4457028;32;34828;-66
2023/09/20 07:10:29;;;;;;;5.30;2.05;;;;;;;26.42;43.00;99895.31;4483483;32;33883;-66
2023/09/20 07:12:57;;;;;;;4.62;1.90;;;;;;;26.42;43.03;99902.69;4443647;32;32604;-65
2023/09/20 07:15:25;;;;;;;4.53;1.90;;;;;;;26.42;43.01;99898.06;4443394;32;32957;-67
2023/09/20 07:17:58;;;;;;;3.92;1.70;;;;;;;26.41;43.03;99901.03;4468905;32;34666;-65
2023/09/20 07:20:32;;;;;;;5.60;2.17;;;;;;;26.41;43.05;99901.03;4457799;32;34932;-66
2023/09/20 07:23:00;;;;;;;5.22;1.77;;;;;;;26.41;43.08;99910.06;4456522;32;33613;-65
2023/09/20 07:25:28;;;;;;;4.55;2.10;;;;;;;26.42;43.12;99910.91;4483157;32;33955;-67
2023/09/20 07:27:58;;;;;;;6.80;1.85;;;;;;;26.40;43.13;99910.31;4483083;32;33477;-65
2023/09/20 07:30:31;;;;;;;7.47;2.08;;;;;;;26.40;43.13;99908.41;4469155;32;34059;-68
2023/09/20 07:33:02;;;;;;;5.70;1.62;;;;;;;26.42;43.12;99916.38;4456461;32;32521;-65
2023/09/20 07:35:39;;;;;;;4.25;1.92;;;;;;;26.42;43.12;99909.00;4444611;32;33163;-67
2023/09/20 07:38:17;;;;;;;3.85;1.80;;;;;;;26.43;43.22;99912.59;4468878;32;34716;-66
2023/09/20 07:40:50;;;;;;;4.95;1.90;;;;;;;26.41;43.26;99912.81;4456677;32;33124;-69
2023/09/20 07:43:18;;;;;;;4.78;2.22;;;;;;;26.41;43.32;99914.72;4457308;32;34390;-66
2023/09/20 07:45:59;;;;;;;4.68;2.17;;;;;;;26.41;43.25;99910.06;4482857;32;34581;-68
2023/09/20 07:48:27;;;;;;;3.45;1.73;;;;;;;26.42;43.26;99913.62;4440432;32;33142;-66
2023/09/20 07:50:55;;;;;;;4.05;2.10;;;;;;;26.41;43.26;99904.59;4453106;32;34938;-69
2023/09/20 07:53:25;;;;;;;4.20;1.50;;;;;;;26.42;43.27;99905.44;4440596;32;32604;-67
2023/09/20 07:56:00;;;;;;;6.80;1.95;;;;;;;26.41;43.26;99906.50;4440960;32;33563;-65
2023/09/20 07:58:28;;;;;;;5.10;1.83;;;;;;;26.43;43.26;99907.13;4465782;32;34954;-66
2023/09/20 08:00:56;;;;;;;4.72;1.70;;;;;;;26.43;43.29;99904.38;4465570;32;34947;-66
2023/09/20 08:03:24;;;;;;;4.32;1.70;;;;;;;26.42;43.22;99903.53;4468861;32;33497;-67
2023/09/20 08:05:53;;;;;;;4.82;1.70;;;;;;;26.43;43.20;99904.38;4455271;32;33748;-70
2023/09/20 08:08:21;;;;;;;5.95;2.10;;;;;;;26.44;43.18;99906.91;4455116;32;34706;-67
2023/09/20 08:10:49;;;;;;;4.43;1.80;;;;;;;26.44;43.15;99900.59;4467920;32;33796;-67
2023/09/20 08:13:37;;;;;;;3.37;1.87;;;;;;;26.43;43.19;99905.22;4467989;32;34278;-66
2023/09/20 08:16:09;;;;;;;3.92;1.80;;;;;;;26.44;43.21;99903.34;4452460;32;33865;-67
2023/09/20 08:21:25;;;;;;;6.68;2.00;;;;;;;26.44;43.29;99909.63;4444115;32;34336;-68
2023/09/20 09:00:27;;;;;;;3.85;1.80;;;;;;;26.54;43.26;99905.44;4445985;32;32802;-68
2023/09/20 09:02:57;;;;;;;4.75;1.75;;;;;;;26.53;43.29;99899.09;4454306;32;34744;-69
2023/09/20 09:05:27;;;;;;;9.75;2.22;;;;;;;26.55;43.40;99896.97;4442601;32;34774;-69
2023/09/20 09:08:00;;;;;;;9.13;2.37;;;;;;;26.55;43.53;99896.97;4454759;32;33524;-69
2023/09/20 09:10:28;;;;;;;5.68;2.08;;;;;;;26.58;43.60;99891.00;4442014;32;34632;-70
2023/09/20 09:12:55;;;;;;;9.07;2.30;;;;;;;26.59;43.74;99884.47;4466819;32;34733;-69
2023/09/20 09:15:24;;;;;;;11.98;2.20;;;;;;;26.61;43.77;99871.34;4454438;32;33765;-71
2023/09/20 09:17:52;;;;;;;4.87;2.05;;;;;;;26.62;43.77;99867.53;4454646;32;34526;-70
2023/09/20 09:20:20;;;;;;;5.40;2.30;;;;;;;26.64;43.72;99870.87;4478173;32;33869;-70
2023/09/20 09:22:49;;;;;;;6.30;2.17;;;;;;;26.65;43.79;99867.03;4457581;32;34724;-70
2023/09/20 09:25:18;;;;;;;6.03;2.10;;;;;;;26.67;43.79;99864.91;4457453;32;33638;-71
2023/09/20 09:27:46;;;;;;;7.32;2.17;;;;;;;26.68;43.76;99869.28;4470115;32;34375;-71
2023/09/20 09:30:17;;;;;;;7.32;1.85;;;;;;;26.73;43.75;99863.09;4484385;32;33528;-65
2023/09/20 09:32:47;;;;;;;4.03;2.03;;;;;;;26.71;43.82;99855.09;4441777;32;33493;-69
2023/09/20 09:35:19;;;;;;;4.00;1.80;;;;;;;26.76;43.93;99853.53;4442090;32;33973;-68
2023/09/20 09:38:01;;;;;;;7.72;1.95;;;;;;;26.81;43.84;99864.56;4455745;32;34292;-68
2023/09/20 09:40:29;;;;;;;5.15;1.87;;;;;;;26.82;43.86;99856.13;4474430;32;33810;-68
2023/09/20 09:43:15;;;;;;;5.82;1.90;;;;;;;26.82;43.74;99847.09;4483347;32;33707;-69
2023/09/20 09:45:46;;;;;;;4.80;1.83;;;;;;;26.87;43.66;99841.69;4470513;32;34160;-70
2023/09/20 09:48:17;;;;;;;4.53;1.90;;;;;;;26.83;43.68;99840.53;4446052;32;33173;-70
2023/09/20 09:50:46;;;;;;;4.18;1.70;;;;;;;26.83;43.62;99840.53;4441816;32;33566;-70
2023/09/20 09:53:14;;;;;;;2.85;1.45;;;;;;;26.82;43.59;99844.34;4441973;32;34008;-71
2023/09/20 09:55:42;;;;;;;3.05;1.50;;;;;;;26.84;43.60;99842.19;4454307;32;34513;-71
2023/09/20 09:58:10;;;;;;;5.32;1.67;;;;;;;26.84;43.58;99844.91;4468525;32;34019;-71
2023/09/20 10:00:39;;;;;;;2.87;1.80;;;;;;;26.86;43.47;99842.75;4454485;32;33938;-70
2023/09/20 10:03:15;;;;;;;4.60;1.87;;;;;;;26.89;43.48;99847.72;4454463;32;34008;-70
2023/09/20 10:05:44;;;;;;;3.50;1.65;;;;;;;26.91;43.40;99845.59;4452242;32;34816;-71
2023/09/20 10:08:13;;;;;;;5.62;1.60;;;;;;;26.93;43.54;99833.31;4445140;32;32924;-71
2023/09/20 10:10:41;;;;;;;3.20;1.48;;;;;;;26.92;43.39;99825.34;4457302;32;33658;-71
2023/09/20 10:13:12;;;;;;;3.85;1.90;;;;;;;26.85;43.47;99830.12;4469957;32;34756;-70
2023/09/20 10:15:43;;;;;;;7.53;1.62;;;;;;;26.90;43.53;99833.78;4453760;32;33070;-69
2023/09/20 10:18:11;;;;;;;5.47;2.03;;;;;;;26.90;43.62;99825.56;4456087;32;33926;-69
2023/09/20 10:21:04;;;;;;;3.08;1.62;;;;;;;26.82;43.49;99830.66;4441082;32;32684;-69
2023/09/20 10:23:34;;;;;;;5.40;1.73;;;;;;;26.90;43.46;99828.31;4442289;32;33524;-69
2023/09/20 10:26:02;;;;;;;3.42;1.60;;;;;;;26.86;43.48;99829.91;4446181;32;34273;-70
2023/09/20 10:28:37;;;;;;;3.85;1.60;;;;;;;26.79;43.45;99826.50;4456551;32;33211;-69
2023/09/20 10:31:05;;;;;;;4.80;1.50;;;;;;;26.78;43.43;99821.28;4469801;32;32418;-70
2023/09/20 10:33:51;;;;;;;4.50;1.87;;;;;;;26.78;43.44;99824.03;4483596;32;34839;-71
2023/09/20 10:36:22;;;;;;;3.15;1.52;;;;;;;26.76;43.49;99821.50;4444100;32;33060;-70
2023/09/20 10:39:16;;;;;;;2.90;1.75;;;;;;;26.75;43.39;99813.56;4456838;32;32615;-69
2023/09/20 10:41:46;;;;;;;2.25;1.42;;;;;;;26.84;43.33;99807.41;4453705;32;35900;-69
2023/09/20 10:44:28;;;;;;;2.72;1.40;;;;;;;26.83;43.32;99813.97;4456617;32;33223;-66
2023/09/20 10:46:58;;;;;;;2.60;1.48;;;;;;;26.83;43.13;99815.88;4441643;32;33573;-70
2023/09/20 10:49:47;;;;;;;;;;;;;;;26.76;43.26;99821.50;4441293;32;32404;-71
2023/09/20 10:52:30;;;;;;;7.00;2.12;;;;;;;26.84;42.99;99809.31;4453764;32;33057;-69
2023/09/20 10:55:22;;;;;;;4.05;1.65;;;;;;;26.78;43.07;99813.91;4468072;32;34804;-69
2023/09/20 10:57:50;;;;;;;5.75;1.58;;;;;;;26.77;43.00;99800.47;4453645;32;33120;-70
2023/09/20 11:00:30;;;;;;;2.70;1.52;;;;;;;26.74;42.95;99800.94;4441482;32;33769;-68
2023/09/20 11:03:00;;;;;;;4.25;1.60;;;;;;;26.75;42.82;99792.47;4473736;32;33516;-69
2023/09/20 11:05:28;;;;;;;4.37;1.60;;;;;;;26.76;42.82;99785.09;4460904;32;33110;-69
2023/09/20 11:07:57;;;;;;;4.80;1.62;;;;;;;26.77;42.81;99792.25;4469208;32;34153;-70
2023/09/20 11:10:26;;;;;;;5.50;1.80;;;;;;;26.74;42.92;99796.31;4443992;32;34379;-70
2023/09/20 11:12:55;;;;;;;2.53;1.30;;;;;;;26.75;42.89;99795.22;4456245;32;34088;-71
2023/09/20 11:15:23;;;;;;;4.43;1.60;;;;;;;26.73;42.93;99785.63;4469432;32;33902;-70
2023/09/20 11:17:53;;;;;;;5.00;1.87;;;;;;;26.75;42.85;99772.50;4456427;32;34866;-71
2023/09/20 11:20:21;;;;;;;2.28;1.40;;;;;;;26.74;42.83;99779.87;4482998;32;34837;-71
2023/09/20 11:22:49;;;;;;;3.85;1.30;;;;;;;26.75;42.80;99765.09;4469167;32;33495;-70
2023/09/20 11:25:17;;;;;;;6.87;1.50;;;;;;;26.77;42.72;99768.44;4469157;32;34839;-70
2023/09/20 11:27:45;;;;;;;6.53;1.70;;;;;;;26.77;42.65;99773.09;4443447;32;33778;-70
2023/09/20 11:30:13;;;;;;;4.93;1.48;;;;;;;26.75;42.68;99773.31;4443224;32;32554;-67
2023/09/20 11:32:41;;;;;;;4.90;1.33;;;;;;;26.75;42.67;99767.84;4468927;32;33150;-71
2023/09/20 11:35:08;;;;;;;3.15;1.80;;;;;;;26.76;42.62;99772.25;4443015;32;33242;-71
2023/09/20 11:37:36;;;;;;;5.25;1.62;;;;;;;26.75;42.64;99772.50;4457840;32;34184;-70
2023/09/20 11:40:05;;;;;;;2.17;1.15;;;;;;;26.75;42.65;99776.06;4470962;32;34316;-71
2023/09/20 11:42:34;;;;;;;3.30;1.70;;;;;;;26.76;42.60;99774.16;4444958;32;32892;-70
2023/09/20 11:45:08;;;;;;;3.12;1.70;;;;;;;26.77;42.59;99773.09;4470989;32;33978;-70
2023/09/20 11:47:56;;;;;;;2.90;1.30;;;;;;;26.78;42.59;99772.00;4473440;32;34112;-70
2023/09/20 11:50:26;;;;;;;3.72;1.50;;;;;;;26.76;42.59;99765.94;4457960;32;34304;-71
2023/09/20 11:52:54;;;;;;;2.90;1.52;;;;;;;26.76;42.53;99760.47;4458166;32;32957;-71
2023/09/20 11:55:23;;;;;;;4.45;1.60;;;;;;;26.75;42.50;99748.69;4458219;32;34549;-70
2023/09/20 11:57:52;;;;;;;2.87;1.50;;;;;;;26.76;42.50;99754.97;4484875;32;34094;-70
2023/09/20 12:00:25;;;;;;;2.20;1.20;;;;;;;26.77;42.39;99754.75;4470252;32;33749;-71
2023/09/20 12:02:56;;;;;;;3.42;1.70;;;;;;;26.77;42.38;99759.41;4442255;32;33837;-70
2023/09/20 12:05:23;;;;;;;4.30;1.73;;;;;;;26.76;42.36;99752.25;4455523;32;34833;-71
2023/09/20 12:07:56;;;;;;;3.33;1.40;;;;;;;26.75;42.45;99743.22;4442090;32;33366;-71
2023/09/20 12:10:26;;;;;;;2.92;1.40;;;;;;;26.76;42.45;99741.31;4454246;32;32562;-70
2023/09/20 12:12:54;;;;;;;2.53;1.58;;;;;;;26.77;42.38;99748.47;4446364;32;32712;-70
2023/09/20 12:15:22;;;;;;;2.65;1.25;;;;;;;26.81;42.33;99734.00;4455185;32;33813;-70
2023/09/20 12:17:57;;;;;;;4.50;1.50;;;;;;;26.83;42.33;99728.28;4467921;32;34067;-70
2023/09/20 12:20:25;;;;;;;4.30;1.60;;;;;;;26.86;42.29;99728.63;4468102;32;33414;-69
2023/09/20 12:23:01;;;;;;;2.78;1.40;;;;;;;26.84;42.34;99729.94;4455182;32;33965;-71
2023/09/20 12:25:30;;;;;;;7.07;1.37;;;;;;;26.79;42.37;99727.13;4455886;32;34677;-69
2023/09/20 12:27:59;;;;;;;3.87;1.50;;;;;;;26.81;42.17;99719.47;4468009;32;34155;-70